sensor_id;sensor_type;location;lat;lon;timestamp;temperature;humidity
35960;DHT22;22043;50.970;7.192;2022-07-21T00:00:26;19.70;99.90
35960;DHT22;22043;50.970;7.192;2022-07-21T00:02:54;19.70;99.90
35960;DHT22;22043;50.970;7.192;2022-07-21T00:05:19;19.70;99.90
35960;DHT22;22043;50.970;7.192;2022-07-21T00:07:46;19.70;99.90
35960;DHT22;22043;50.970;7.192;2022-07-21T00:10:12;19.70;99.90
35960;DHT22;22043;50.970;7.192;2022-07-21T00:12:39;19.70;99.90
35960;DHT22;22043;50.970;7.192;2022-07-21T00:15:05;19.70;99.90
35960;DHT22;22043;50.970;7.192;2022-07-21T00:17:32;19.70;99.90
35960;DHT22;22043;50.970;7.192;2022-07-21T00:19:59;19.60;99.90
35960;DHT22;22043;50.970;7.192;2022-07-21T00:22:24;19.50;99.90
35960;DHT22;22043;50.970;7.192;2022-07-21T00:24:50;19.40;99.90
35960;DHT22;22043;50.970;7.192;2022-07-21T00:27:16;19.30;99.90
35960;DHT22;22043;50.970;7.192;2022-07-21T00:29:41;19.20;99.90
35960;DHT22;22043;50.970;7.192;2022-07-21T00:32:07;19.10;99.90
35960;DHT22;22043;50.970;7.192;2022-07-21T00:34:33;19.10;99.90
35960;DHT22;22043;50.970;7.192;2022-07-21T00:36:59;19.10;99.90
35960;DHT22;22043;50.970;7.192;2022-07-21T00:39:25;19.00;99.90
35960;DHT22;22043;50.970;7.192;2022-07-21T00:41:51;19.00;99.90
35960;DHT22;22043;50.970;7.192;2022-07-21T00:44:26;19.00;99.90
35960;DHT22;22043;50.970;7.192;2022-07-21T00:46:52;18.90;99.90
35960;DHT22;22043;50.970;7.192;2022-07-21T00:49:18;18.80;99.90
35960;DHT22;22043;50.970;7.192;2022-07-21T00:51:45;18.80;99.90
35960;DHT22;22043;50.970;7.192;2022-07-21T00:54:12;18.80;99.90
35960;DHT22;22043;50.970;7.192;2022-07-21T00:56:39;18.80;99.90
35960;DHT22;22043;50.970;7.192;2022-07-21T00:59:05;18.80;99.90
35960;DHT22;22043;50.970;7.192;2022-07-21T01:01:31;18.70;99.90
35960;DHT22;22043;50.970;7.192;2022-07-21T01:03:57;18.70;99.90
35960;DHT22;22043;50.970;7.192;2022-07-21T01:06:24;18.70;99.90
35960;DHT22;22043;50.970;7.192;2022-07-21T01:08:51;18.70;99.90
35960;DHT22;22043;50.970;7.192;2022-07-21T01:11:18;18.70;99.90
35960;DHT22;22043;50.970;7.192;2022-07-21T01:13:46;18.60;99.90
35960;DHT22;22043;50.970;7.192;2022-07-21T01:16:12;18.60;99.90
35960;DHT22;22043;50.970;7.192;2022-07-21T01:18:37;18.60;99.90
35960;DHT22;22043;50.970;7.192;2022-07-21T01:21:27;18.60;99.90
35960;DHT22;22043;50.970;7.192;2022-07-21T01:23:53;18.60;99.90
35960;DHT22;22043;50.970;7.192;2022-07-21T01:26:19;18.60;99.90
35960;DHT22;22043;50.970;7.192;2022-07-21T01:28:45;18.60;99.90
35960;DHT22;22043;50.970;7.192;2022-07-21T01:31:11;18.60;99.90
35960;DHT22;22043;50.970;7.192;2022-07-21T01:33:37;18.70;99.90
35960;DHT22;22043;50.970;7.192;2022-07-21T01:36:03;18.70;99.90
35960;DHT22;22043;50.970;7.192;2022-07-21T01:38:28;18.70;99.90
35960;DHT22;22043;50.970;7.192;2022-07-21T01:41:13;18.70;99.90
35960;DHT22;22043;50.970;7.192;2022-07-21T01:43:58;18.60;99.90
35960;DHT22;22043;50.970;7.192;2022-07-21T01:46:25;18.60;99.90
35960;DHT22;22043;50.970;7.192;2022-07-21T01:48:51;18.50;99.90
35960;DHT22;22043;50.970;7.192;2022-07-21T01:51:16;18.50;99.90
35960;DHT22;22043;50.970;7.192;2022-07-21T01:53:42;18.50;99.90
35960;DHT22;22043;50.970;7.192;2022-07-21T01:56:08;18.50;99.90
35960;DHT22;22043;50.970;7.192;2022-07-21T01:58:34;18.50;99.90
35960;DHT22;22043;50.970;7.192;2022-07-21T02:01:00;18.50;99.90
35960;DHT22;22043;50.970;7.192;2022-07-21T02:03:25;18.50;99.90
35960;DHT22;22043;50.970;7.192;2022-07-21T02:05:51;18.50;99.90
35960;DHT22;22043;50.970;7.192;2022-07-21T02:08:17;18.50;99.90
35960;DHT22;22043;50.970;7.192;2022-07-21T02:10:42;18.50;99.90
35960;DHT22;22043;50.970;7.192;2022-07-21T02:13:08;18.60;99.90
35960;DHT22;22043;50.970;7.192;2022-07-21T02:15:34;18.60;99.90
35960;DHT22;22043;50.970;7.192;2022-07-21T02:17:59;18.60;99.90
35960;DHT22;22043;50.970;7.192;2022-07-21T02:20:26;18.60;99.90
35960;DHT22;22043;50.970;7.192;2022-07-21T02:22:52;18.60;99.90
35960;DHT22;22043;50.970;7.192;2022-07-21T02:25:18;18.60;99.90
35960;DHT22;22043;50.970;7.192;2022-07-21T02:27:45;18.50;99.90
35960;DHT22;22043;50.970;7.192;2022-07-21T02:30:12;18.50;99.90
35960;DHT22;22043;50.970;7.192;2022-07-21T02:32:38;18.50;99.90
35960;DHT22;22043;50.970;7.192;2022-07-21T02:35:05;18.40;99.90
35960;DHT22;22043;50.970;7.192;2022-07-21T02:37:31;18.40;99.90
35960;DHT22;22043;50.970;7.192;2022-07-21T02:39:56;18.40;99.90
35960;DHT22;22043;50.970;7.192;2022-07-21T02:42:22;18.40;99.90
35960;DHT22;22043;50.970;7.192;2022-07-21T02:44:48;18.40;99.90
35960;DHT22;22043;50.970;7.192;2022-07-21T02:47:13;18.40;99.90
35960;DHT22;22043;50.970;7.192;2022-07-21T02:49:39;18.40;99.90
35960;DHT22;22043;50.970;7.192;2022-07-21T02:52:05;18.50;99.90
35960;DHT22;22043;50.970;7.192;2022-07-21T02:54:31;18.50;99.90
35960;DHT22;22043;50.970;7.192;2022-07-21T02:56:57;18.50;99.90
35960;DHT22;22043;50.970;7.192;2022-07-21T02:59:23;18.50;99.90
35960;DHT22;22043;50.970;7.192;2022-07-21T03:01:49;18.50;99.90
35960;DHT22;22043;50.970;7.192;2022-07-21T03:04:15;18.50;99.90
35960;DHT22;22043;50.970;7.192;2022-07-21T03:06:41;18.50;99.90
35960;DHT22;22043;50.970;7.192;2022-07-21T03:09:08;18.50;99.90
35960;DHT22;22043;50.970;7.192;2022-07-21T03:11:34;18.50;99.90
35960;DHT22;22043;50.970;7.192;2022-07-21T03:14:00;18.50;99.90
35960;DHT22;22043;50.970;7.192;2022-07-21T03:16:26;18.50;99.90
35960;DHT22;22043;50.970;7.192;2022-07-21T03:18:51;18.50;99.90
35960;DHT22;22043;50.970;7.192;2022-07-21T03:21:17;18.50;99.90
35960;DHT22;22043;50.970;7.192;2022-07-21T03:23:43;18.50;99.90
35960;DHT22;22043;50.970;7.192;2022-07-21T03:26:14;18.50;99.90
35960;DHT22;22043;50.970;7.192;2022-07-21T03:28:40;18.50;99.90
35960;DHT22;22043;50.970;7.192;2022-07-21T03:31:06;18.50;99.90
35960;DHT22;22043;50.970;7.192;2022-07-21T03:33:32;18.40;99.90
35960;DHT22;22043;50.970;7.192;2022-07-21T03:35:58;18.40;99.90
35960;DHT22;22043;50.970;7.192;2022-07-21T03:38:25;18.40;99.90
35960;DHT22;22043;50.970;7.192;2022-07-21T03:40:51;18.50;99.90
35960;DHT22;22043;50.970;7.192;2022-07-21T03:43:17;18.50;99.90
35960;DHT22;22043;50.970;7.192;2022-07-21T03:45:42;18.50;99.90
35960;DHT22;22043;50.970;7.192;2022-07-21T03:48:09;18.50;99.90
35960;DHT22;22043;50.970;7.192;2022-07-21T03:50:36;18.40;99.90
35960;DHT22;22043;50.970;7.192;2022-07-21T03:53:04;18.40;99.90
35960;DHT22;22043;50.970;7.192;2022-07-21T03:55:30;18.40;99.90
35960;DHT22;22043;50.970;7.192;2022-07-21T03:58:01;18.40;99.90
35960;DHT22;22043;50.970;7.192;2022-07-21T04:00:41;18.40;99.90
35960;DHT22;22043;50.970;7.192;2022-07-21T04:03:08;18.40;99.90
35960;DHT22;22043;50.970;7.192;2022-07-21T04:05:35;18.40;99.90
35960;DHT22;22043;50.970;7.192;2022-07-21T04:08:01;18.40;99.90
35960;DHT22;22043;50.970;7.192;2022-07-21T04:10:29;18.50;99.90
35960;DHT22;22043;50.970;7.192;2022-07-21T04:12:56;18.50;99.90
35960;DHT22;22043;50.970;7.192;2022-07-21T04:15:22;18.50;99.90
35960;DHT22;22043;50.970;7.192;2022-07-21T04:17:48;18.40;99.90
35960;DHT22;22043;50.970;7.192;2022-07-21T04:20:15;18.40;99.90
35960;DHT22;22043;50.970;7.192;2022-07-21T04:22:42;18.50;99.90
35960;DHT22;22043;50.970;7.192;2022-07-21T04:25:08;18.50;99.90
35960;DHT22;22043;50.970;7.192;2022-07-21T04:27:34;18.40;99.90
35960;DHT22;22043;50.970;7.192;2022-07-21T04:30:00;18.50;99.90
35960;DHT22;22043;50.970;7.192;2022-07-21T04:32:26;18.40;99.90
35960;DHT22;22043;50.970;7.192;2022-07-21T04:34:52;18.50;99.90
35960;DHT22;22043;50.970;7.192;2022-07-21T04:37:17;18.50;99.90
35960;DHT22;22043;50.970;7.192;2022-07-21T04:39:43;18.50;99.90
35960;DHT22;22043;50.970;7.192;2022-07-21T04:42:09;18.50;99.90
35960;DHT22;22043;50.970;7.192;2022-07-21T04:44:35;18.60;99.90
35960;DHT22;22043;50.970;7.192;2022-07-21T04:47:00;18.60;99.90
35960;DHT22;22043;50.970;7.192;2022-07-21T04:49:26;18.70;99.90
35960;DHT22;22043;50.970;7.192;2022-07-21T04:51:52;18.70;99.90
35960;DHT22;22043;50.970;7.192;2022-07-21T04:54:17;18.70;99.90
35960;DHT22;22043;50.970;7.192;2022-07-21T04:56:44;18.70;99.90
35960;DHT22;22043;50.970;7.192;2022-07-21T04:59:11;18.80;99.90
35960;DHT22;22043;50.970;7.192;2022-07-21T05:01:37;18.80;99.90
35960;DHT22;22043;50.970;7.192;2022-07-21T05:04:04;18.80;99.90
35960;DHT22;22043;50.970;7.192;2022-07-21T05:06:31;18.80;99.90
35960;DHT22;22043;50.970;7.192;2022-07-21T05:08:56;18.80;99.90
35960;DHT22;22043;50.970;7.192;2022-07-21T05:11:22;18.80;99.90
35960;DHT22;22043;50.970;7.192;2022-07-21T05:13:48;18.80;99.90
35960;DHT22;22043;50.970;7.192;2022-07-21T05:16:14;18.80;99.90
35960;DHT22;22043;50.970;7.192;2022-07-21T05:18:39;18.80;99.90
35960;DHT22;22043;50.970;7.192;2022-07-21T05:21:05;18.80;99.90
35960;DHT22;22043;50.970;7.192;2022-07-21T05:23:31;18.80;99.90
35960;DHT22;22043;50.970;7.192;2022-07-21T05:25:57;18.90;99.90
35960;DHT22;22043;50.970;7.192;2022-07-21T05:28:22;18.90;99.90
35960;DHT22;22043;50.970;7.192;2022-07-21T05:30:48;18.90;99.90
35960;DHT22;22043;50.970;7.192;2022-07-21T05:33:14;18.90;99.90
35960;DHT22;22043;50.970;7.192;2022-07-21T05:35:39;18.80;99.90
35960;DHT22;22043;50.970;7.192;2022-07-21T05:38:05;18.90;99.90
35960;DHT22;22043;50.970;7.192;2022-07-21T05:40:31;18.90;99.90
35960;DHT22;22043;50.970;7.192;2022-07-21T05:42:57;18.90;99.90
35960;DHT22;22043;50.970;7.192;2022-07-21T05:45:23;18.90;99.90
35960;DHT22;22043;50.970;7.192;2022-07-21T05:47:48;18.90;99.90
35960;DHT22;22043;50.970;7.192;2022-07-21T05:50:14;18.90;99.90
35960;DHT22;22043;50.970;7.192;2022-07-21T05:52:40;18.90;99.90
35960;DHT22;22043;50.970;7.192;2022-07-21T05:55:07;18.90;99.90
35960;DHT22;22043;50.970;7.192;2022-07-21T05:57:32;18.90;99.90
35960;DHT22;22043;50.970;7.192;2022-07-21T05:59:58;18.90;99.90
35960;DHT22;22043;50.970;7.192;2022-07-21T06:02:25;18.90;99.90
35960;DHT22;22043;50.970;7.192;2022-07-21T06:04:50;18.90;99.90
35960;DHT22;22043;50.970;7.192;2022-07-21T06:07:16;18.90;99.90
35960;DHT22;22043;50.970;7.192;2022-07-21T06:09:42;18.90;99.90
35960;DHT22;22043;50.970;7.192;2022-07-21T06:12:08;18.90;99.90
35960;DHT22;22043;50.970;7.192;2022-07-21T06:14:33;18.90;99.90
35960;DHT22;22043;50.970;7.192;2022-07-21T06:16:59;18.90;99.90
35960;DHT22;22043;50.970;7.192;2022-07-21T06:19:25;18.90;99.90
35960;DHT22;22043;50.970;7.192;2022-07-21T06:21:50;18.90;99.90
35960;DHT22;22043;50.970;7.192;2022-07-21T06:24:16;18.90;99.90
35960;DHT22;22043;50.970;7.192;2022-07-21T06:26:45;18.90;99.90
35960;DHT22;22043;50.970;7.192;2022-07-21T06:29:11;18.90;99.90
35960;DHT22;22043;50.970;7.192;2022-07-21T06:31:36;18.90;99.90
35960;DHT22;22043;50.970;7.192;2022-07-21T06:34:02;18.90;99.90
35960;DHT22;22043;50.970;7.192;2022-07-21T06:36:28;18.90;99.90
35960;DHT22;22043;50.970;7.192;2022-07-21T06:38:54;18.90;99.90
35960;DHT22;22043;50.970;7.192;2022-07-21T06:41:19;18.90;99.90
35960;DHT22;22043;50.970;7.192;2022-07-21T06:43:45;18.90;99.90
35960;DHT22;22043;50.970;7.192;2022-07-21T06:46:11;19.00;99.90
35960;DHT22;22043;50.970;7.192;2022-07-21T06:48:36;19.00;99.90
35960;DHT22;22043;50.970;7.192;2022-07-21T06:51:02;19.00;99.90
35960;DHT22;22043;50.970;7.192;2022-07-21T06:53:28;19.00;99.90
35960;DHT22;22043;50.970;7.192;2022-07-21T06:55:53;19.00;99.90
35960;DHT22;22043;50.970;7.192;2022-07-21T06:58:22;19.10;99.90
35960;DHT22;22043;50.970;7.192;2022-07-21T07:00:50;19.10;99.90
35960;DHT22;22043;50.970;7.192;2022-07-21T07:03:17;19.00;99.90
35960;DHT22;22043;50.970;7.192;2022-07-21T07:05:44;19.10;99.90
35960;DHT22;22043;50.970;7.192;2022-07-21T07:08:10;19.10;99.90
35960;DHT22;22043;50.970;7.192;2022-07-21T07:10:36;19.00;99.90
35960;DHT22;22043;50.970;7.192;2022-07-21T07:13:02;19.00;99.90
35960;DHT22;22043;50.970;7.192;2022-07-21T07:15:29;19.00;99.90
35960;DHT22;22043;50.970;7.192;2022-07-21T07:17:55;19.00;99.90
35960;DHT22;22043;50.970;7.192;2022-07-21T07:20:21;19.00;99.90
35960;DHT22;22043;50.970;7.192;2022-07-21T07:22:47;19.00;99.90
35960;DHT22;22043;50.970;7.192;2022-07-21T07:25:13;19.00;99.90
35960;DHT22;22043;50.970;7.192;2022-07-21T07:27:51;19.10;99.90
35960;DHT22;22043;50.970;7.192;2022-07-21T07:30:18;19.10;99.90
35960;DHT22;22043;50.970;7.192;2022-07-21T07:32:45;19.10;99.90
35960;DHT22;22043;50.970;7.192;2022-07-21T07:35:12;19.10;99.90
35960;DHT22;22043;50.970;7.192;2022-07-21T07:37:40;19.20;99.90
35960;DHT22;22043;50.970;7.192;2022-07-21T07:40:08;19.20;99.90
35960;DHT22;22043;50.970;7.192;2022-07-21T07:42:36;19.20;99.90
35960;DHT22;22043;50.970;7.192;2022-07-21T07:45:03;19.20;99.90
35960;DHT22;22043;50.970;7.192;2022-07-21T07:47:29;19.20;99.90
35960;DHT22;22043;50.970;7.192;2022-07-21T07:49:55;19.20;99.90
35960;DHT22;22043;50.970;7.192;2022-07-21T07:52:21;19.20;99.90
35960;DHT22;22043;50.970;7.192;2022-07-21T07:54:47;19.20;99.90
35960;DHT22;22043;50.970;7.192;2022-07-21T07:57:13;19.20;99.90
35960;DHT22;22043;50.970;7.192;2022-07-21T07:59:39;19.30;99.90
35960;DHT22;22043;50.970;7.192;2022-07-21T08:02:04;19.30;99.90
35960;DHT22;22043;50.970;7.192;2022-07-21T08:04:30;19.30;99.90
35960;DHT22;22043;50.970;7.192;2022-07-21T08:06:56;19.30;99.90
35960;DHT22;22043;50.970;7.192;2022-07-21T08:09:22;19.30;99.90
35960;DHT22;22043;50.970;7.192;2022-07-21T08:11:48;19.30;99.90
35960;DHT22;22043;50.970;7.192;2022-07-21T08:14:14;19.30;99.90
35960;DHT22;22043;50.970;7.192;2022-07-21T08:16:40;19.40;99.90
35960;DHT22;22043;50.970;7.192;2022-07-21T08:19:06;19.40;99.90
35960;DHT22;22043;50.970;7.192;2022-07-21T08:21:32;19.50;99.90
35960;DHT22;22043;50.970;7.192;2022-07-21T08:23:59;19.60;99.90
35960;DHT22;22043;50.970;7.192;2022-07-21T08:26:25;19.70;99.90
35960;DHT22;22043;50.970;7.192;2022-07-21T08:28:56;19.70;99.90
35960;DHT22;22043;50.970;7.192;2022-07-21T08:31:22;19.80;99.90
35960;DHT22;22043;50.970;7.192;2022-07-21T08:33:50;19.80;99.90
35960;DHT22;22043;50.970;7.192;2022-07-21T08:36:16;19.80;99.90
35960;DHT22;22043;50.970;7.192;2022-07-21T08:38:42;19.90;99.90
35960;DHT22;22043;50.970;7.192;2022-07-21T08:41:07;20.00;99.90
35960;DHT22;22043;50.970;7.192;2022-07-21T08:43:34;20.00;99.90
35960;DHT22;22043;50.970;7.192;2022-07-21T08:46:01;20.10;99.90
35960;DHT22;22043;50.970;7.192;2022-07-21T08:48:27;20.20;99.90
35960;DHT22;22043;50.970;7.192;2022-07-21T08:50:55;20.30;99.90
35960;DHT22;22043;50.970;7.192;2022-07-21T08:53:21;20.40;99.90
35960;DHT22;22043;50.970;7.192;2022-07-21T08:55:47;20.50;99.90
35960;DHT22;22043;50.970;7.192;2022-07-21T08:58:13;20.60;99.90
35960;DHT22;22043;50.970;7.192;2022-07-21T09:00:43;20.60;99.90
35960;DHT22;22043;50.970;7.192;2022-07-21T09:03:14;20.70;99.90
35960;DHT22;22043;50.970;7.192;2022-07-21T09:05:41;20.70;99.90
35960;DHT22;22043;50.970;7.192;2022-07-21T09:08:07;20.70;99.90
35960;DHT22;22043;50.970;7.192;2022-07-21T09:10:34;20.80;99.90
35960;DHT22;22043;50.970;7.192;2022-07-21T09:13:04;20.80;99.90
35960;DHT22;22043;50.970;7.192;2022-07-21T09:15:31;20.80;99.90
35960;DHT22;22043;50.970;7.192;2022-07-21T09:20:29;20.80;99.90
35960;DHT22;22043;50.970;7.192;2022-07-21T09:25:51;20.90;99.90
35960;DHT22;22043;50.970;7.192;2022-07-21T09:28:22;20.90;99.90
35960;DHT22;22043;50.970;7.192;2022-07-21T09:30:59;20.90;99.90
35960;DHT22;22043;50.970;7.192;2022-07-21T09:38:27;20.90;99.90
35960;DHT22;22043;50.970;7.192;2022-07-21T09:40:54;20.90;99.90
35960;DHT22;22043;50.970;7.192;2022-07-21T09:46:17;20.90;99.90
35960;DHT22;22043;50.970;7.192;2022-07-21T09:48:46;21.00;99.90
35960;DHT22;22043;50.970;7.192;2022-07-21T09:51:31;21.10;99.90
35960;DHT22;22043;50.970;7.192;2022-07-21T09:53:59;21.00;99.90
35960;DHT22;22043;50.970;7.192;2022-07-21T09:56:31;21.00;99.90
35960;DHT22;22043;50.970;7.192;2022-07-21T09:58:58;21.00;99.90
35960;DHT22;22043;50.970;7.192;2022-07-21T10:01:26;21.00;99.90
35960;DHT22;22043;50.970;7.192;2022-07-21T10:03:53;21.00;99.90
35960;DHT22;22043;50.970;7.192;2022-07-21T10:06:23;21.00;99.90
35960;DHT22;22043;50.970;7.192;2022-07-21T10:08:49;21.10;99.90
35960;DHT22;22043;50.970;7.192;2022-07-21T10:11:15;21.10;99.90
35960;DHT22;22043;50.970;7.192;2022-07-21T10:13:41;21.10;99.90
35960;DHT22;22043;50.970;7.192;2022-07-21T10:16:11;21.20;99.90
35960;DHT22;22043;50.970;7.192;2022-07-21T10:18:47;21.30;99.90
35960;DHT22;22043;50.970;7.192;2022-07-21T10:21:26;21.30;99.90
35960;DHT22;22043;50.970;7.192;2022-07-21T10:23:54;21.40;99.90
35960;DHT22;22043;50.970;7.192;2022-07-21T10:26:21;21.40;99.90
35960;DHT22;22043;50.970;7.192;2022-07-21T10:28:47;21.50;99.90
35960;DHT22;22043;50.970;7.192;2022-07-21T10:31:23;21.50;99.90
35960;DHT22;22043;50.970;7.192;2022-07-21T10:41:50;21.70;99.90
35960;DHT22;22043;50.970;7.192;2022-07-21T10:49:58;21.80;99.90
35960;DHT22;22043;50.970;7.192;2022-07-21T10:57:40;21.50;99.90
35960;DHT22;22043;50.970;7.192;2022-07-21T11:00:36;21.40;99.90
35960;DHT22;22043;50.970;7.192;2022-07-21T11:03:14;21.30;99.90
35960;DHT22;22043;50.970;7.192;2022-07-21T11:13:58;20.90;99.90
35960;DHT22;22043;50.970;7.192;2022-07-21T11:19:31;20.70;99.90
35960;DHT22;22043;50.970;7.192;2022-07-21T11:22:01;20.60;99.90
35960;DHT22;22043;50.970;7.192;2022-07-21T11:24:27;20.60;99.90
35960;DHT22;22043;50.970;7.192;2022-07-21T11:26:59;20.60;99.90
35960;DHT22;22043;50.970;7.192;2022-07-21T11:29:25;20.70;99.90
35960;DHT22;22043;50.970;7.192;2022-07-21T11:31:52;20.80;99.90
35960;DHT22;22043;50.970;7.192;2022-07-21T11:34:18;20.80;99.90
35960;DHT22;22043;50.970;7.192;2022-07-21T11:36:44;20.90;99.90
35960;DHT22;22043;50.970;7.192;2022-07-21T11:39:15;20.90;99.90
35960;DHT22;22043;50.970;7.192;2022-07-21T11:41:42;20.80;99.90
35960;DHT22;22043;50.970;7.192;2022-07-21T11:44:09;20.90;99.90
35960;DHT22;22043;50.970;7.192;2022-07-21T11:46:50;20.80;99.90
35960;DHT22;22043;50.970;7.192;2022-07-21T11:49:16;20.80;99.90
35960;DHT22;22043;50.970;7.192;2022-07-21T11:51:53;20.80;99.90
35960;DHT22;22043;50.970;7.192;2022-07-21T11:54:29;20.80;99.90
35960;DHT22;22043;50.970;7.192;2022-07-21T11:56:56;20.80;99.90
35960;DHT22;22043;50.970;7.192;2022-07-21T11:59:23;20.70;99.90
35960;DHT22;22043;50.970;7.192;2022-07-21T12:01:51;20.70;99.90
35960;DHT22;22043;50.970;7.192;2022-07-21T12:04:36;20.60;99.90
35960;DHT22;22043;50.970;7.192;2022-07-21T12:07:21;20.60;99.90
35960;DHT22;22043;50.970;7.192;2022-07-21T12:09:58;20.50;99.90
35960;DHT22;22043;50.970;7.192;2022-07-21T12:17:50;20.10;99.90
35960;DHT22;22043;50.970;7.192;2022-07-21T12:20:26;20.00;99.90
35960;DHT22;22043;50.970;7.192;2022-07-21T12:22:52;19.90;99.90
35960;DHT22;22043;50.970;7.192;2022-07-21T12:25:33;19.80;99.90
35960;DHT22;22043;50.970;7.192;2022-07-21T12:27:59;19.80;99.90
35960;DHT22;22043;50.970;7.192;2022-07-21T12:33:14;19.60;99.90
35960;DHT22;22043;50.970;7.192;2022-07-21T12:35:55;19.50;99.90
35960;DHT22;22043;50.970;7.192;2022-07-21T12:38:21;19.50;99.90
35960;DHT22;22043;50.970;7.192;2022-07-21T12:40:56;19.50;99.90
35960;DHT22;22043;50.970;7.192;2022-07-21T12:43:23;19.40;99.90
35960;DHT22;22043;50.970;7.192;2022-07-21T12:45:55;19.40;99.90
35960;DHT22;22043;50.970;7.192;2022-07-21T12:48:28;19.30;99.90
35960;DHT22;22043;50.970;7.192;2022-07-21T12:51:22;19.30;99.90
35960;DHT22;22043;50.970;7.192;2022-07-21T12:53:54;19.30;99.90
35960;DHT22;22043;50.970;7.192;2022-07-21T12:56:25;19.20;99.90
35960;DHT22;22043;50.970;7.192;2022-07-21T12:58:53;19.20;99.90
35960;DHT22;22043;50.970;7.192;2022-07-21T13:01:20;19.20;99.90
35960;DHT22;22043;50.970;7.192;2022-07-21T13:03:46;19.20;99.90
35960;DHT22;22043;50.970;7.192;2022-07-21T13:06:12;19.20;99.90
35960;DHT22;22043;50.970;7.192;2022-07-21T13:08:40;19.20;99.90
35960;DHT22;22043;50.970;7.192;2022-07-21T13:11:07;19.20;99.90
35960;DHT22;22043;50.970;7.192;2022-07-21T13:13:33;19.20;99.90
35960;DHT22;22043;50.970;7.192;2022-07-21T13:15:59;19.20;99.90
35960;DHT22;22043;50.970;7.192;2022-07-21T13:18:24;19.20;99.90
35960;DHT22;22043;50.970;7.192;2022-07-21T13:20:52;19.20;99.90
35960;DHT22;22043;50.970;7.192;2022-07-21T13:23:18;19.20;99.90
35960;DHT22;22043;50.970;7.192;2022-07-21T13:25:44;19.20;99.90
35960;DHT22;22043;50.970;7.192;2022-07-21T13:28:09;19.20;99.90
35960;DHT22;22043;50.970;7.192;2022-07-21T13:30:35;19.20;99.90
35960;DHT22;22043;50.970;7.192;2022-07-21T13:33:01;19.20;99.90
35960;DHT22;22043;50.970;7.192;2022-07-21T13:35:27;19.10;99.90
35960;DHT22;22043;50.970;7.192;2022-07-21T13:37:56;19.10;99.90
35960;DHT22;22043;50.970;7.192;2022-07-21T13:40:23;19.10;99.90
35960;DHT22;22043;50.970;7.192;2022-07-21T13:42:49;19.10;99.90
35960;DHT22;22043;50.970;7.192;2022-07-21T13:45:15;19.10;99.90
35960;DHT22;22043;50.970;7.192;2022-07-21T13:47:42;19.10;99.90
35960;DHT22;22043;50.970;7.192;2022-07-21T13:50:08;19.10;99.90
35960;DHT22;22043;50.970;7.192;2022-07-21T13:52:34;19.10;99.90
35960;DHT22;22043;50.970;7.192;2022-07-21T13:55:01;19.10;99.90
35960;DHT22;22043;50.970;7.192;2022-07-21T13:57:27;19.10;99.90
35960;DHT22;22043;50.970;7.192;2022-07-21T13:59:52;19.10;99.90
35960;DHT22;22043;50.970;7.192;2022-07-21T14:02:18;19.20;99.90
35960;DHT22;22043;50.970;7.192;2022-07-21T14:04:44;19.20;99.90
35960;DHT22;22043;50.970;7.192;2022-07-21T14:07:10;19.20;99.90
35960;DHT22;22043;50.970;7.192;2022-07-21T14:09:42;19.20;99.90
35960;DHT22;22043;50.970;7.192;2022-07-21T14:12:09;19.20;99.90
35960;DHT22;22043;50.970;7.192;2022-07-21T14:14:36;19.20;99.90
35960;DHT22;22043;50.970;7.192;2022-07-21T14:17:02;19.20;99.90
35960;DHT22;22043;50.970;7.192;2022-07-21T14:19:28;19.20;99.90
35960;DHT22;22043;50.970;7.192;2022-07-21T14:21:53;19.20;99.90
35960;DHT22;22043;50.970;7.192;2022-07-21T14:24:19;19.20;99.90
35960;DHT22;22043;50.970;7.192;2022-07-21T14:27:03;19.10;99.90
35960;DHT22;22043;50.970;7.192;2022-07-21T14:29:29;19.10;99.90
35960;DHT22;22043;50.970;7.192;2022-07-21T14:31:55;19.10;99.90
35960;DHT22;22043;50.970;7.192;2022-07-21T14:34:20;19.00;99.90
35960;DHT22;22043;50.970;7.192;2022-07-21T14:36:46;19.00;99.90
35960;DHT22;22043;50.970;7.192;2022-07-21T14:39:17;19.00;99.90
35960;DHT22;22043;50.970;7.192;2022-07-21T14:41:43;19.00;99.90
35960;DHT22;22043;50.970;7.192;2022-07-21T14:44:10;18.90;99.90
35960;DHT22;22043;50.970;7.192;2022-07-21T14:46:36;18.90;99.90
35960;DHT22;22043;50.970;7.192;2022-07-21T14:49:02;18.90;99.90
35960;DHT22;22043;50.970;7.192;2022-07-21T14:51:28;18.90;99.90
35960;DHT22;22043;50.970;7.192;2022-07-21T14:53:54;18.90;99.90
35960;DHT22;22043;50.970;7.192;2022-07-21T14:56:19;18.90;99.90
35960;DHT22;22043;50.970;7.192;2022-07-21T14:58:45;18.90;99.90
35960;DHT22;22043;50.970;7.192;2022-07-21T15:01:11;18.90;99.90
35960;DHT22;22043;50.970;7.192;2022-07-21T15:03:36;18.90;99.90
35960;DHT22;22043;50.970;7.192;2022-07-21T15:06:02;18.90;99.90
35960;DHT22;22043;50.970;7.192;2022-07-21T15:08:30;18.90;99.90
35960;DHT22;22043;50.970;7.192;2022-07-21T15:10:56;18.90;99.90
35960;DHT22;22043;50.970;7.192;2022-07-21T15:13:21;18.90;99.90
35960;DHT22;22043;50.970;7.192;2022-07-21T15:15:47;18.90;99.90
35960;DHT22;22043;50.970;7.192;2022-07-21T15:18:12;18.90;99.90
35960;DHT22;22043;50.970;7.192;2022-07-21T15:20:38;18.90;99.90
35960;DHT22;22043;50.970;7.192;2022-07-21T15:23:04;18.80;99.90
35960;DHT22;22043;50.970;7.192;2022-07-21T15:25:30;18.70;99.90
35960;DHT22;22043;50.970;7.192;2022-07-21T15:27:56;18.70;99.90
35960;DHT22;22043;50.970;7.192;2022-07-21T15:30:22;18.60;99.90
35960;DHT22;22043;50.970;7.192;2022-07-21T15:32:47;18.60;99.90
35960;DHT22;22043;50.970;7.192;2022-07-21T15:35:13;18.60;99.90
35960;DHT22;22043;50.970;7.192;2022-07-21T15:37:39;18.60;99.90
35960;DHT22;22043;50.970;7.192;2022-07-21T15:40:06;18.70;99.90
35960;DHT22;22043;50.970;7.192;2022-07-21T15:42:32;18.70;99.90
35960;DHT22;22043;50.970;7.192;2022-07-21T15:45:00;18.70;99.90
35960;DHT22;22043;50.970;7.192;2022-07-21T15:47:25;18.80;99.90
35960;DHT22;22043;50.970;7.192;2022-07-21T15:49:51;18.70;99.90
35960;DHT22;22043;50.970;7.192;2022-07-21T15:52:17;18.80;99.90
35960;DHT22;22043;50.970;7.192;2022-07-21T15:54:42;18.80;99.90
35960;DHT22;22043;50.970;7.192;2022-07-21T15:57:09;18.80;99.90
35960;DHT22;22043;50.970;7.192;2022-07-21T15:59:38;18.90;99.90
35960;DHT22;22043;50.970;7.192;2022-07-21T16:02:12;18.90;99.90
35960;DHT22;22043;50.970;7.192;2022-07-21T16:04:39;18.90;99.90
35960;DHT22;22043;50.970;7.192;2022-07-21T16:07:06;18.90;99.90
35960;DHT22;22043;50.970;7.192;2022-07-21T16:09:33;18.90;99.90
35960;DHT22;22043;50.970;7.192;2022-07-21T16:12:00;18.90;99.90
35960;DHT22;22043;50.970;7.192;2022-07-21T16:14:26;18.90;99.90
35960;DHT22;22043;50.970;7.192;2022-07-21T16:16:52;18.80;99.90
35960;DHT22;22043;50.970;7.192;2022-07-21T16:19:21;18.90;99.90
35960;DHT22;22043;50.970;7.192;2022-07-21T16:21:48;18.90;99.90